sensor_id;sensor_type;location;lat;lon;timestamp;temperature;humidity
63371;DHT22;49504;48.336;14.472;2023-08-07T00:00:55;26.50;59.20
63371;DHT22;49504;48.336;14.472;2023-08-07T00:04:16;26.40;59.20
63371;DHT22;49504;48.336;14.472;2023-08-07T00:07:38;26.50;59.40
63371;DHT22;49504;48.336;14.472;2023-08-07T00:11:05;26.50;59.20
63371;DHT22;49504;48.336;14.472;2023-08-07T00:14:26;26.40;59.10
63371;DHT22;49504;48.336;14.472;2023-08-07T00:17:49;26.40;59.20
63371;DHT22;49504;48.336;14.472;2023-08-07T00:21:10;26.40;59.20
63371;DHT22;49504;48.336;14.472;2023-08-07T00:24:31;26.40;59.10
63371;DHT22;49504;48.336;14.472;2023-08-07T00:27:52;26.40;59.10
63371;DHT22;49504;48.336;14.472;2023-08-07T00:31:13;26.40;59.20
63371;DHT22;49504;48.336;14.472;2023-08-07T00:34:36;26.40;59.20
63371;DHT22;49504;48.336;14.472;2023-08-07T00:37:57;26.40;59.40
63371;DHT22;49504;48.336;14.472;2023-08-07T00:41:18;26.40;59.50
63371;DHT22;49504;48.336;14.472;2023-08-07T00:44:39;26.40;59.40
63371;DHT22;49504;48.336;14.472;2023-08-07T00:48:32;26.40;58.90
63371;DHT22;49504;48.336;14.472;2023-08-07T00:54:54;26.40;58.90
63371;DHT22;49504;48.336;14.472;2023-08-07T00:58:15;26.40;59.30
63371;DHT22;49504;48.336;14.472;2023-08-07T01:04:38;26.30;58.80
63371;DHT22;49504;48.336;14.472;2023-08-07T01:07:59;26.40;59.20
63371;DHT22;49504;48.336;14.472;2023-08-07T01:11:27;26.40;59.10
63371;DHT22;49504;48.336;14.472;2023-08-07T01:14:56;26.40;59.10
63371;DHT22;49504;48.336;14.472;2023-08-07T01:18:22;26.40;59.10
63371;DHT22;49504;48.336;14.472;2023-08-07T01:21:46;26.40;59.10
63371;DHT22;49504;48.336;14.472;2023-08-07T01:25:09;26.30;59.00
63371;DHT22;49504;48.336;14.472;2023-08-07T01:28:34;26.40;59.10
63371;DHT22;49504;48.336;14.472;2023-08-07T01:31:59;26.40;59.00
63371;DHT22;49504;48.336;14.472;2023-08-07T01:35:23;26.40;58.90
63371;DHT22;49504;48.336;14.472;2023-08-07T01:38:46;26.30;58.80
63371;DHT22;49504;48.336;14.472;2023-08-07T01:42:09;26.30;58.80
63371;DHT22;49504;48.336;14.472;2023-08-07T01:45:31;26.40;58.90
63371;DHT22;49504;48.336;14.472;2023-08-07T01:48:52;26.40;58.90
63371;DHT22;49504;48.336;14.472;2023-08-07T01:53:48;26.30;58.30
63371;DHT22;49504;48.336;14.472;2023-08-07T01:57:09;26.40;58.90
63371;DHT22;49504;48.336;14.472;2023-08-07T02:00:30;26.40;58.90
63371;DHT22;49504;48.336;14.472;2023-08-07T02:03:51;26.40;58.90
63371;DHT22;49504;48.336;14.472;2023-08-07T02:07:13;26.30;58.80
63371;DHT22;49504;48.336;14.472;2023-08-07T02:10:35;26.30;58.80
63371;DHT22;49504;48.336;14.472;2023-08-07T02:13:56;26.40;58.90
63371;DHT22;49504;48.336;14.472;2023-08-07T02:17:20;26.30;58.90
63371;DHT22;49504;48.336;14.472;2023-08-07T02:20:41;26.30;58.80
63371;DHT22;49504;48.336;14.472;2023-08-07T02:24:02;26.30;58.80
63371;DHT22;49504;48.336;14.472;2023-08-07T02:27:25;26.30;58.80
63371;DHT22;49504;48.336;14.472;2023-08-07T02:33:32;26.30;58.30
63371;DHT22;49504;48.336;14.472;2023-08-07T02:36:54;26.40;58.90
63371;DHT22;49504;48.336;14.472;2023-08-07T02:42:46;26.30;58.30
63371;DHT22;49504;48.336;14.472;2023-08-07T02:46:07;26.30;58.80
63371;DHT22;49504;48.336;14.472;2023-08-07T02:49:28;26.30;58.80
63371;DHT22;49504;48.336;14.472;2023-08-07T02:52:49;26.30;58.80
63371;DHT22;49504;48.336;14.472;2023-08-07T02:56:10;26.30;58.80
63371;DHT22;49504;48.336;14.472;2023-08-07T02:59:33;26.30;58.90
63371;DHT22;49504;48.336;14.472;2023-08-07T03:02:54;26.30;59.00
63371;DHT22;49504;48.336;14.472;2023-08-07T03:06:15;26.30;59.00
63371;DHT22;49504;48.336;14.472;2023-08-07T03:09:36;26.30;58.90
63371;DHT22;49504;48.336;14.472;2023-08-07T03:12:57;26.30;58.90
63371;DHT22;49504;48.336;14.472;2023-08-07T03:16:20;26.30;59.00
63371;DHT22;49504;48.336;14.472;2023-08-07T03:19:42;26.30;59.20
63371;DHT22;49504;48.336;14.472;2023-08-07T03:24:15;26.30;58.50
63371;DHT22;49504;48.336;14.472;2023-08-07T03:28:12;26.30;58.30
63371;DHT22;49504;48.336;14.472;2023-08-07T03:31:33;26.30;59.00
63371;DHT22;49504;48.336;14.472;2023-08-07T03:34:54;26.30;59.00
63371;DHT22;49504;48.336;14.472;2023-08-07T03:38:16;26.30;59.10
63371;DHT22;49504;48.336;14.472;2023-08-07T03:41:37;26.30;59.20
63371;DHT22;49504;48.336;14.472;2023-08-07T03:45:00;26.30;59.20
63371;DHT22;49504;48.336;14.472;2023-08-07T03:48:21;26.30;59.30
63371;DHT22;49504;48.336;14.472;2023-08-07T03:52:44;26.30;58.70
63371;DHT22;49504;48.336;14.472;2023-08-07T03:56:06;26.30;59.20
63371;DHT22;49504;48.336;14.472;2023-08-07T03:59:29;26.30;59.00
63371;DHT22;49504;48.336;14.472;2023-08-07T04:02:50;26.30;59.00
63371;DHT22;49504;48.336;14.472;2023-08-07T04:06:11;26.30;59.20
63371;DHT22;49504;48.336;14.472;2023-08-07T04:09:34;26.30;59.00
63371;DHT22;49504;48.336;14.472;2023-08-07T04:12:56;26.30;59.10
63371;DHT22;49504;48.336;14.472;2023-08-07T04:16:17;26.30;59.30
63371;DHT22;49504;48.336;14.472;2023-08-07T04:19:39;26.30;58.90
63371;DHT22;49504;48.336;14.472;2023-08-07T04:24:55;26.30;58.20
63371;DHT22;49504;48.336;14.472;2023-08-07T04:28:16;26.30;59.00
63371;DHT22;49504;48.336;14.472;2023-08-07T04:31:37;26.30;58.80
63371;DHT22;49504;48.336;14.472;2023-08-07T04:34:59;26.30;58.50
63371;DHT22;49504;48.336;14.472;2023-08-07T04:38:20;26.30;58.70
63371;DHT22;49504;48.336;14.472;2023-08-07T04:41:43;26.30;58.80
63371;DHT22;49504;48.336;14.472;2023-08-07T04:45:06;26.30;58.80
63371;DHT22;49504;48.336;14.472;2023-08-07T04:48:27;26.30;59.00
63371;DHT22;49504;48.336;14.472;2023-08-07T04:51:49;26.30;59.00
63371;DHT22;49504;48.336;14.472;2023-08-07T04:55:10;26.20;58.90
63371;DHT22;49504;48.336;14.472;2023-08-07T04:58:33;26.30;59.00
63371;DHT22;49504;48.336;14.472;2023-08-07T05:01:54;26.20;58.90
63371;DHT22;49504;48.336;14.472;2023-08-07T05:05:15;26.20;58.90
63371;DHT22;49504;48.336;14.472;2023-08-07T05:08:36;26.20;59.00
63371;DHT22;49504;48.336;14.472;2023-08-07T05:11:57;26.30;59.10
63371;DHT22;49504;48.336;14.472;2023-08-07T05:15:20;26.20;58.80
63371;DHT22;49504;48.336;14.472;2023-08-07T05:18:42;26.20;58.70
63371;DHT22;49504;48.336;14.472;2023-08-07T05:22:03;26.20;58.70
63371;DHT22;49504;48.336;14.472;2023-08-07T05:25:25;26.20;58.70
63371;DHT22;49504;48.336;14.472;2023-08-07T05:28:46;26.20;58.70
63371;DHT22;49504;48.336;14.472;2023-08-07T05:32:09;26.20;58.70
63371;DHT22;49504;48.336;14.472;2023-08-07T05:35:30;26.20;58.50
63371;DHT22;49504;48.336;14.472;2023-08-07T05:38:57;26.30;58.80
63371;DHT22;49504;48.336;14.472;2023-08-07T05:42:18;26.30;58.80
63371;DHT22;49504;48.336;14.472;2023-08-07T05:45:39;26.20;58.50
63371;DHT22;49504;48.336;14.472;2023-08-07T05:49:02;26.20;58.60
63371;DHT22;49504;48.336;14.472;2023-08-07T05:52:23;26.30;58.50
63371;DHT22;49504;48.336;14.472;2023-08-07T05:55:44;26.30;58.70
63371;DHT22;49504;48.336;14.472;2023-08-07T05:59:06;26.30;58.80
63371;DHT22;49504;48.336;14.472;2023-08-07T06:03:29;26.30;58.20
63371;DHT22;49504;48.336;14.472;2023-08-07T06:06:50;26.20;58.70
63371;DHT22;49504;48.336;14.472;2023-08-07T06:10:11;26.20;58.70
63371;DHT22;49504;48.336;14.472;2023-08-07T06:13:32;26.20;58.50
63371;DHT22;49504;48.336;14.472;2023-08-07T06:16:53;26.30;58.40
63371;DHT22;49504;48.336;14.472;2023-08-07T06:20:16;26.20;58.40
63371;DHT22;49504;48.336;14.472;2023-08-07T06:23:37;26.30;58.80
63371;DHT22;49504;48.336;14.472;2023-08-07T06:29:34;26.20;58.00
63371;DHT22;49504;48.336;14.472;2023-08-07T06:32:55;26.20;58.50
63371;DHT22;49504;48.336;14.472;2023-08-07T06:36:16;26.30;58.20
63371;DHT22;49504;48.336;14.472;2023-08-07T06:39:38;26.20;58.10
63371;DHT22;49504;48.336;14.472;2023-08-07T06:42:59;26.20;57.80
63371;DHT22;49504;48.336;14.472;2023-08-07T06:46:21;26.20;57.90
63371;DHT22;49504;48.336;14.472;2023-08-07T06:49:42;26.20;58.00
63371;DHT22;49504;48.336;14.472;2023-08-07T06:53:03;26.20;58.10
63371;DHT22;49504;48.336;14.472;2023-08-07T06:56:24;26.20;58.10
63371;DHT22;49504;48.336;14.472;2023-08-07T06:59:45;26.20;58.10
63371;DHT22;49504;48.336;14.472;2023-08-07T07:03:08;26.20;58.10
63371;DHT22;49504;48.336;14.472;2023-08-07T07:06:29;26.20;58.10
63371;DHT22;49504;48.336;14.472;2023-08-07T07:09:51;26.20;58.10
63371;DHT22;49504;48.336;14.472;2023-08-07T07:13:12;26.20;57.90
63371;DHT22;49504;48.336;14.472;2023-08-07T07:16:33;26.20;58.00
63371;DHT22;49504;48.336;14.472;2023-08-07T07:19:55;26.20;57.90
63371;DHT22;49504;48.336;14.472;2023-08-07T07:24:17;26.20;57.50
63371;DHT22;49504;48.336;14.472;2023-08-07T07:27:39;26.20;58.10
63371;DHT22;49504;48.336;14.472;2023-08-07T07:31:00;26.20;58.20
63371;DHT22;49504;48.336;14.472;2023-08-07T07:34:21;26.20;58.20
63371;DHT22;49504;48.336;14.472;2023-08-07T07:37:42;26.20;58.40
63371;DHT22;49504;48.336;14.472;2023-08-07T07:41:05;26.20;58.10
63371;DHT22;49504;48.336;14.472;2023-08-07T07:44:34;26.20;58.20
63371;DHT22;49504;48.336;14.472;2023-08-07T07:47:56;26.20;58.40
63371;DHT22;49504;48.336;14.472;2023-08-07T07:53:06;26.20;57.70
63371;DHT22;49504;48.336;14.472;2023-08-07T07:56:28;26.20;58.10
63371;DHT22;49504;48.336;14.472;2023-08-07T07:59:49;26.20;57.70
63371;DHT22;49504;48.336;14.472;2023-08-07T08:03:10;26.20;57.50
63371;DHT22;49504;48.336;14.472;2023-08-07T08:06:32;26.20;57.60
63371;DHT22;49504;48.336;14.472;2023-08-07T08:09:55;26.20;57.50
63371;DHT22;49504;48.336;14.472;2023-08-07T08:13:17;26.20;57.70
63371;DHT22;49504;48.336;14.472;2023-08-07T08:16:39;26.10;57.70
63371;DHT22;49504;48.336;14.472;2023-08-07T08:20:01;26.20;57.40
63371;DHT22;49504;48.336;14.472;2023-08-07T08:23:23;26.10;57.50
63371;DHT22;49504;48.336;14.472;2023-08-07T08:26:45;26.10;57.60
63371;DHT22;49504;48.336;14.472;2023-08-07T08:30:07;26.20;57.80
63371;DHT22;49504;48.336;14.472;2023-08-07T08:33:29;26.20;57.80
63371;DHT22;49504;48.336;14.472;2023-08-07T08:36:50;26.20;57.60
63371;DHT22;49504;48.336;14.472;2023-08-07T08:40:11;26.20;57.70
63371;DHT22;49504;48.336;14.472;2023-08-07T08:44:48;26.10;57.20
63371;DHT22;49504;48.336;14.472;2023-08-07T08:48:15;26.20;57.40
63371;DHT22;49504;48.336;14.472;2023-08-07T08:51:40;26.20;57.40
63371;DHT22;49504;48.336;14.472;2023-08-07T08:55:02;26.20;57.40
63371;DHT22;49504;48.336;14.472;2023-08-07T08:58:24;26.20;57.50
63371;DHT22;49504;48.336;14.472;2023-08-07T09:01:47;26.20;57.60
63371;DHT22;49504;48.336;14.472;2023-08-07T09:05:09;26.20;57.60
63371;DHT22;49504;48.336;14.472;2023-08-07T09:08:30;26.20;57.70
63371;DHT22;49504;48.336;14.472;2023-08-07T09:11:52;26.20;58.00
63371;DHT22;49504;48.336;14.472;2023-08-07T09:18:06;26.20;57.30
63371;DHT22;49504;48.336;14.472;2023-08-07T09:21:29;26.20;57.90
63371;DHT22;49504;48.336;14.472;2023-08-07T09:25:31;26.10;57.10
63371;DHT22;49504;48.336;14.472;2023-08-07T09:29:22;26.20;57.20
63371;DHT22;49504;48.336;14.472;2023-08-07T09:36:06;26.20;57.40
63371;DHT22;49504;48.336;14.472;2023-08-07T09:39:27;26.20;58.10
63371;DHT22;49504;48.336;14.472;2023-08-07T09:42:51;26.20;58.10
63371;DHT22;49504;48.336;14.472;2023-08-07T09:46:13;26.10;58.10
63371;DHT22;49504;48.336;14.472;2023-08-07T09:49:34;26.20;58.00
63371;DHT22;49504;48.336;14.472;2023-08-07T09:52:57;26.20;58.20
63371;DHT22;49504;48.336;14.472;2023-08-07T09:56:18;26.20;58.30
63371;DHT22;49504;48.336;14.472;2023-08-07T09:59:40;26.20;58.40
63371;DHT22;49504;48.336;14.472;2023-08-07T10:03:02;26.20;58.30
63371;DHT22;49504;48.336;14.472;2023-08-07T10:09:29;26.10;57.70
63371;DHT22;49504;48.336;14.472;2023-08-07T10:12:52;26.10;58.30
63371;DHT22;49504;48.336;14.472;2023-08-07T10:19:06;26.10;57.70
63371;DHT22;49504;48.336;14.472;2023-08-07T10:22:30;26.10;58.40
63371;DHT22;49504;48.336;14.472;2023-08-07T10:25:51;26.20;58.40
63371;DHT22;49504;48.336;14.472;2023-08-07T10:29:16;26.10;58.30
63371;DHT22;49504;48.336;14.472;2023-08-07T10:32:39;26.10;58.10
63371;DHT22;49504;48.336;14.472;2023-08-07T10:36:08;26.10;58.30
63371;DHT22;49504;48.336;14.472;2023-08-07T10:39:29;26.10;58.30
63371;DHT22;49504;48.336;14.472;2023-08-07T10:43:12;26.10;58.20
63371;DHT22;49504;48.336;14.472;2023-08-07T10:46:47;26.10;58.20
63371;DHT22;49504;48.336;14.472;2023-08-07T10:50:10;26.10;57.90
63371;DHT22;49504;48.336;14.472;2023-08-07T10:53:35;26.10;57.90
63371;DHT22;49504;48.336;14.472;2023-08-07T10:57:06;26.10;57.60
63371;DHT22;49504;48.336;14.472;2023-08-07T11:00:31;26.10;57.50
63371;DHT22;49504;48.336;14.472;2023-08-07T11:05:54;26.10;57.20
63371;DHT22;49504;48.336;14.472;2023-08-07T11:09:18;26.10;57.90
63371;DHT22;49504;48.336;14.472;2023-08-07T11:12:40;26.10;57.70
63371;DHT22;49504;48.336;14.472;2023-08-07T11:17:30;26.10;57.10
63371;DHT22;49504;48.336;14.472;2023-08-07T11:20:53;26.10;57.60
63371;DHT22;49504;48.336;14.472;2023-08-07T11:24:16;26.20;57.60
63371;DHT22;49504;48.336;14.472;2023-08-07T11:27:38;26.10;57.60
63371;DHT22;49504;48.336;14.472;2023-08-07T11:31:01;26.20;57.70
63371;DHT22;49504;48.336;14.472;2023-08-07T11:34:25;26.20;57.90
63371;DHT22;49504;48.336;14.472;2023-08-07T11:37:47;26.20;57.90
63371;DHT22;49504;48.336;14.472;2023-08-07T11:41:11;26.20;58.00
63371;DHT22;49504;48.336;14.472;2023-08-07T11:45:55;26.20;57.30
63371;DHT22;49504;48.336;14.472;2023-08-07T11:49:18;26.20;57.80
63371;DHT22;49504;48.336;14.472;2023-08-07T11:52:40;26.20;57.90
63371;DHT22;49504;48.336;14.472;2023-08-07T11:56:03;26.20;57.80
63371;DHT22;49504;48.336;14.472;2023-08-07T11:59:28;26.20;57.80
63371;DHT22;49504;48.336;14.472;2023-08-07T12:02:50;26.20;57.70
63371;DHT22;49504;48.336;14.472;2023-08-07T12:06:11;26.20;57.70
63371;DHT22;49504;48.336;14.472;2023-08-07T12:09:33;26.20;57.80
63371;DHT22;49504;48.336;14.472;2023-08-07T12:12:58;26.20;57.90
63371;DHT22;49504;48.336;14.472;2023-08-07T12:16:20;26.20;57.90
63371;DHT22;49504;48.336;14.472;2023-08-07T12:19:42;26.20;58.10
63371;DHT22;49504;48.336;14.472;2023-08-07T12:23:04;26.20;58.10
63371;DHT22;49504;48.336;14.472;2023-08-07T12:28:05;26.20;57.50
63371;DHT22;49504;48.336;14.472;2023-08-07T12:31:26;26.20;58.20
63371;DHT22;49504;48.336;14.472;2023-08-07T12:34:48;26.20;58.20
63371;DHT22;49504;48.336;14.472;2023-08-07T12:38:09;26.20;58.10
63371;DHT22;49504;48.336;14.472;2023-08-07T12:41:31;26.20;58.10
63371;DHT22;49504;48.336;14.472;2023-08-07T12:44:53;26.20;58.40
63371;DHT22;49504;48.336;14.472;2023-08-07T12:48:15;26.20;58.70
63371;DHT22;49504;48.336;14.472;2023-08-07T12:51:53;26.20;57.80
63371;DHT22;49504;48.336;14.472;2023-08-07T12:55:14;26.20;58.40
63371;DHT22;49504;48.336;14.472;2023-08-07T12:58:35;26.20;58.60
63371;DHT22;49504;48.336;14.472;2023-08-07T13:01:56;26.30;58.80
63371;DHT22;49504;48.336;14.472;2023-08-07T13:05:18;26.20;58.70
63371;DHT22;49504;48.336;14.472;2023-08-07T13:09:42;26.30;58.20
63371;DHT22;49504;48.336;14.472;2023-08-07T13:13:03;26.20;58.70
63371;DHT22;49504;48.336;14.472;2023-08-07T13:16:24;26.30;58.80
63371;DHT22;49504;48.336;14.472;2023-08-07T13:19:45;26.30;58.80
63371;DHT22;49504;48.336;14.472;2023-08-07T13:23:06;26.30;58.80
63371;DHT22;49504;48.336;14.472;2023-08-07T13:26:48;26.30;58.20
63371;DHT22;49504;48.336;14.472;2023-08-07T13:30:10;26.30;58.90
63371;DHT22;49504;48.336;14.472;2023-08-07T13:35:52;26.30;58.20
63371;DHT22;49504;48.336;14.472;2023-08-07T13:39:13;26.30;58.90
63371;DHT22;49504;48.336;14.472;2023-08-07T13:42:34;26.30;59.00
63371;DHT22;49504;48.336;14.472;2023-08-07T13:46:18;26.30;58.40
63371;DHT22;49504;48.336;14.472;2023-08-07T13:52:16;26.30;58.40
63371;DHT22;49504;48.336;14.472;2023-08-07T13:56:03;26.30;58.50
63371;DHT22;49504;48.336;14.472;2023-08-07T13:59:24;26.30;59.30
63371;DHT22;49504;48.336;14.472;2023-08-07T14:02:45;26.30;59.50
63371;DHT22;49504;48.336;14.472;2023-08-07T14:08:09;26.30;58.70
63371;DHT22;49504;48.336;14.472;2023-08-07T14:11:31;26.30;59.50
63371;DHT22;49504;48.336;14.472;2023-08-07T14:14:53;26.30;59.50
63371;DHT22;49504;48.336;14.472;2023-08-07T14:18:14;26.30;59.60
63371;DHT22;49504;48.336;14.472;2023-08-07T14:21:38;26.30;59.60
63371;DHT22;49504;48.336;14.472;2023-08-07T14:25:00;26.30;59.40
63371;DHT22;49504;48.336;14.472;2023-08-07T14:28:21;26.30;59.20
63371;DHT22;49504;48.336;14.472;2023-08-07T14:31:43;26.30;59.30
63371;DHT22;49504;48.336;14.472;2023-08-07T14:35:05;26.30;59.50
63371;DHT22;49504;48.336;14.472;2023-08-07T14:38:26;26.30;59.60
63371;DHT22;49504;48.336;14.472;2023-08-07T14:41:54;26.30;59.70
63371;DHT22;49504;48.336;14.472;2023-08-07T14:45:16;26.30;59.70
63371;DHT22;49504;48.336;14.472;2023-08-07T14:48:39;26.30;59.80
63371;DHT22;49504;48.336;14.472;2023-08-07T14:52:01;26.30;59.80
63371;DHT22;49504;48.336;14.472;2023-08-07T14:56:48;26.30;59.10
63371;DHT22;49504;48.336;14.472;2023-08-07T15:00:11;26.30;59.80
63371;DHT22;49504;48.336;14.472;2023-08-07T15:03:33;26.30;59.90
63371;DHT22;49504;48.336;14.472;2023-08-07T15:06:54;26.30;59.90
63371;DHT22;49504;48.336;14.472;2023-08-07T15:10:15;26.30;59.90
63371;DHT22;49504;48.336;14.472;2023-08-07T15:13:38;26.30;59.80
63371;DHT22;49504;48.336;14.472;2023-08-07T15:16:59;26.30;59.80
63371;DHT22;49504;48.336;14.472;2023-08-07T15:20:20;26.30;59.80
63371;DHT22;49504;48.336;14.472;2023-08-07T15:23:41;26.30;59.80
63371;DHT22;49504;48.336;14.472;2023-08-07T15:27:03;26.30;59.60
63371;DHT22;49504;48.336;14.472;2023-08-07T15:30:26;26.30;59.40
63371;DHT22;49504;48.336;14.472;2023-08-07T15:33:47;26.30;59.30
63371;DHT22;49504;48.336;14.472;2023-08-07T15:37:08;26.30;59.30
63371;DHT22;49504;48.336;14.472;2023-08-07T15:40:30;26.30;59.40
63371;DHT22;49504;48.336;14.472;2023-08-07T15:43:51;26.30;59.40
63371;DHT22;49504;48.336;14.472;2023-08-07T15:47:14;26.30;59.40
63371;DHT22;49504;48.336;14.472;2023-08-07T15:50:58;26.30;58.80
63371;DHT22;49504;48.336;14.472;2023-08-07T15:54:19;26.30;59.50
63371;DHT22;49504;48.336;14.472;2023-08-07T15:57:40;26.30;59.50
63371;DHT22;49504;48.336;14.472;2023-08-07T16:01:01;26.30;59.60
63371;DHT22;49504;48.336;14.472;2023-08-07T16:04:22;26.30;59.60
63371;DHT22;49504;48.336;14.472;2023-08-07T16:07:45;26.30;59.60
63371;DHT22;49504;48.336;14.472;2023-08-07T16:11:07;26.30;59.40
63371;DHT22;49504;48.336;14.472;2023-08-07T16:14:28;26.30;59.40
63371;DHT22;49504;48.336;14.472;2023-08-07T16:17:49;26.30;59.50
63371;DHT22;49504;48.336;14.472;2023-08-07T16:21:10;26.30;59.50
63371;DHT22;49504;48.336;14.472;2023-08-07T16:24:33;26.30;59.60
63371;DHT22;49504;48.336;14.472;2023-08-07T16:27:54;26.30;59.40
63371;DHT22;49504;48.336;14.472;2023-08-07T16:31:49;26.30;58.90
63371;DHT22;49504;48.336;14.472;2023-08-07T16:35:10;26.30;59.40
63371;DHT22;49504;48.336;14.472;2023-08-07T16:38:32;26.30;59.40
63371;DHT22;49504;48.336;14.472;2023-08-07T16:41:54;26.30;59.50
63371;DHT22;49504;48.336;14.472;2023-08-07T16:45:15;26.30;59.50
63371;DHT22;49504;48.336;14.472;2023-08-07T16:48:38;26.30;59.50
63371;DHT22;49504;48.336;14.472;2023-08-07T16:54:10;26.30;58.80
63371;DHT22;49504;48.336;14.472;2023-08-07T16:59:00;26.30;58.70
63371;DHT22;49504;48.336;14.472;2023-08-07T17:02:22;26.30;59.10
63371;DHT22;49504;48.336;14.472;2023-08-07T17:07:15;26.30;58.70
63371;DHT22;49504;48.336;14.472;2023-08-07T17:10:37;26.30;59.20
63371;DHT22;49504;48.336;14.472;2023-08-07T17:13:58;26.30;59.00
63371;DHT22;49504;48.336;14.472;2023-08-07T17:17:19;26.30;59.00
63371;DHT22;49504;48.336;14.472;2023-08-07T17:20:41;26.30;58.90
63371;DHT22;49504;48.336;14.472;2023-08-07T17:28:05;26.30;58.60
63371;DHT22;49504;48.336;14.472;2023-08-07T17:31:32;26.30;59.10
63371;DHT22;49504;48.336;14.472;2023-08-07T17:34:54;26.30;59.20
63371;DHT22;49504;48.336;14.472;2023-08-07T17:38:15;26.30;59.20
63371;DHT22;49504;48.336;14.472;2023-08-07T17:41:37;26.30;59.00
63371;DHT22;49504;48.336;14.472;2023-08-07T17:45:00;26.30;59.00
63371;DHT22;49504;48.336;14.472;2023-08-07T17:50:05;26.30;58.60
63371;DHT22;49504;48.336;14.472;2023-08-07T17:53:27;26.30;59.20
63371;DHT22;49504;48.336;14.472;2023-08-07T17:56:48;26.30;59.20
63371;DHT22;49504;48.336;14.472;2023-08-07T18:00:10;26.40;59.40
63371;DHT22;49504;48.336;14.472;2023-08-07T18:03:32;26.30;59.40
63371;DHT22;49504;48.336;14.472;2023-08-07T18:06:55;26.30;59.50
63371;DHT22;49504;48.336;14.472;2023-08-07T18:10:16;26.40;59.70
63371;DHT22;49504;48.336;14.472;2023-08-07T18:13:37;26.30;59.60
63371;DHT22;49504;48.336;14.472;2023-08-07T18:16:58;26.40;59.80
63371;DHT22;49504;48.336;14.472;2023-08-07T18:20:20;26.30;59.70
63371;DHT22;49504;48.336;14.472;2023-08-07T18:23:42;26.30;59.80
63371;DHT22;49504;48.336;14.472;2023-08-07T18:27:04;26.40;59.80
63371;DHT22;49504;48.336;14.472;2023-08-07T18:33:28;26.30;59.20
63371;DHT22;49504;48.336;14.472;2023-08-07T18:36:50;26.30;59.90
63371;DHT22;49504;48.336;14.472;2023-08-07T18:40:11;26.40;60.00
63371;DHT22;49504;48.336;14.472;2023-08-07T18:43:32;26.40;60.00
63371;DHT22;49504;48.336;14.472;2023-08-07T18:46:53;26.40;60.00
63371;DHT22;49504;48.336;14.472;2023-08-07T18:50:16;26.30;60.00
63371;DHT22;49504;48.336;14.472;2023-08-07T18:53:37;26.30;60.00
63371;DHT22;49504;48.336;14.472;2023-08-07T18:56:58;26.40;60.10
63371;DHT22;49504;48.336;14.472;2023-08-07T19:00:20;26.40;60.10
63371;DHT22;49504;48.336;14.472;2023-08-07T19:03:48;26.40;60.10
63371;DHT22;49504;48.336;14.472;2023-08-07T19:07:11;26.40;60.00
63371;DHT22;49504;48.336;14.472;2023-08-07T19:10:32;26.40;60.00
63371;DHT22;49504;48.336;14.472;2023-08-07T19:14:22;26.40;59.40
63371;DHT22;49504;48.336;14.472;2023-08-07T19:17:43;26.30;59.70
63371;DHT22;49504;48.336;14.472;2023-08-07T19:21:04;26.40;59.90
63371;DHT22;49504;48.336;14.472;2023-08-07T19:24:25;26.40;60.00
63371;DHT22;49504;48.336;14.472;2023-08-07T19:27:46;26.40;60.00
63371;DHT22;49504;48.336;14.472;2023-08-07T19:31:09;26.40;60.00
63371;DHT22;49504;48.336;14.472;2023-08-07T19:34:30;26.40;60.00
63371;DHT22;49504;48.336;14.472;2023-08-07T19:37:51;26.30;60.00
63371;DHT22;49504;48.336;14.472;2023-08-07T19:41:13;26.30;60.00
63371;DHT22;49504;48.336;14.472;2023-08-07T19:44:34;26.30;59.90
63371;DHT22;49504;48.336;14.472;2023-08-07T19:47:57;26.30;60.00
63371;DHT22;49504;48.336;14.472;2023-08-07T19:51:18;26.40;60.10
63371;DHT22;49504;48.336;14.472;2023-08-07T19:54:39;26.30;60.00
63371;DHT22;49504;48.336;14.472;2023-08-07T19:59:55;26.30;59.00
63371;DHT22;49504;48.336;14.472;2023-08-07T20:03:16;26.40;59.30
63371;DHT22;49504;48.336;14.472;2023-08-07T20:06:37;26.30;59.30
63371;DHT22;49504;48.336;14.472;2023-08-07T20:09:58;26.40;59.30
63371;DHT22;49504;48.336;14.472;2023-08-07T20:13:20;26.40;59.20
63371;DHT22;49504;48.336;14.472;2023-08-07T20:18:45;26.30;58.80
63371;DHT22;49504;48.336;14.472;2023-08-07T20:22:06;26.30;59.20
63371;DHT22;49504;48.336;14.472;2023-08-07T20:25:27;26.40;59.20
63371;DHT22;49504;48.336;14.472;2023-08-07T20:28:49;26.40;59.30
63371;DHT22;49504;48.336;14.472;2023-08-07T20:32:10;26.40;59.30
63371;DHT22;49504;48.336;14.472;2023-08-07T20:35:32;26.30;59.20
63371;DHT22;49504;48.336;14.472;2023-08-07T20:38:53;26.30;59.20
63371;DHT22;49504;48.336;14.472;2023-08-07T20:42:14;26.40;59.20
63371;DHT22;49504;48.336;14.472;2023-08-07T20:45:36;26.30;59.20
63371;DHT22;49504;48.336;14.472;2023-08-07T20:48:57;26.30;59.90
63371;DHT22;49504;48.336;14.472;2023-08-07T20:53:07;26.40;58.80
63371;DHT22;49504;48.336;14.472;2023-08-07T20:56:28;26.30;59.40
63371;DHT22;49504;48.336;14.472;2023-08-07T20:59:49;26.30;59.30
63371;DHT22;49504;48.336;14.472;2023-08-07T21:03:10;26.40;59.50
63371;DHT22;49504;48.336;14.472;2023-08-07T21:06:31;26.30;59.40
63371;DHT22;49504;48.336;14.472;2023-08-07T21:09:54;26.30;59.50
63371;DHT22;49504;48.336;14.472;2023-08-07T21:13:15;26.30;59.50
63371;DHT22;49504;48.336;14.472;2023-08-07T21:16:36;26.30;59.60
63371;DHT22;49504;48.336;14.472;2023-08-07T21:19:57;26.30;59.50
63371;DHT22;49504;48.336;14.472;2023-08-07T21:23:18;26.30;59.60
63371;DHT22;49504;48.336;14.472;2023-08-07T21:26:41;26.30;59.60
63371;DHT22;49504;48.336;14.472;2023-08-07T21:30:03;26.30;59.60
63371;DHT22;49504;48.336;14.472;2023-08-07T21:33:24;26.30;59.70
63371;DHT22;49504;48.336;14.472;2023-08-07T21:36:45;26.30;59.80
63371;DHT22;49504;48.336;14.472;2023-08-07T21:40:07;26.30;59.80
63371;DHT22;49504;48.336;14.472;2023-08-07T21:43:30;26.30;59.70
63371;DHT22;49504;48.336;14.472;2023-08-07T21:46:51;26.30;59.80
63371;DHT22;49504;48.336;14.472;2023-08-07T21:50:12;26.30;59.80
63371;DHT22;49504;48.336;14.472;2023-08-07T21:53:33;26.30;59.80
63371;DHT22;49504;48.336;14.472;2023-08-07T21:56:55;26.30;59.80
63371;DHT22;49504;48.336;14.472;2023-08-07T22:00:17;26.30;59.90
63371;DHT22;49504;48.336;14.472;2023-08-07T22:03:38;26.30;59.90
63371;DHT22;49504;48.336;14.472;2023-08-07T22:07:00;26.30;59.90
63371;DHT22;49504;48.336;14.472;2023-08-07T22:10:21;26.30;60.00